Terminal Aerodrome Forecast
Issued by NWS

Home | Current Version | Previous Version | Text Only | Print | Product List | Glossary On
Versions: 1 2 3 4 5 6 7 8 9 10 11 12
000
FTUS44 KLIX 191146
TAFHUM
TAF
KHUM 191146Z 1912/2012 00000KT P6SM FEW015
     FM191500 32005KT P6SM SCT200
      TEMPO 1916/1920 4SM -TSRA BKN040CB BKN200
     FM192000 22004KT P6SM BKN120
      TEMPO 1920/1924 4SM -TSRA OVC040CB
     FM200000 20005KT P6SM BKN150
     FM200600 VRB03KT P6SM SCT200=

USA.gov is the U.S. government's official web portal to all federal, state and local government web resources and services.